sensor_id;sensor_type;location;lat;lon;timestamp;P1;durP1;ratioP1;P2;durP2;ratioP2
12776;SDS011;6452;41.572;23.732;2023-02-24T00:01:36;31.52;;;24.17;;
12776;SDS011;6452;41.572;23.732;2023-02-24T00:04:05;35.17;;;25.02;;
12776;SDS011;6452;41.572;23.732;2023-02-24T00:06:35;29.92;;;24.10;;
12776;SDS011;6452;41.572;23.732;2023-02-24T00:09:18;32.22;;;23.83;;
12776;SDS011;6452;41.572;23.732;2023-02-24T00:11:52;23.67;;;18.75;;
12776;SDS011;6452;41.572;23.732;2023-02-24T00:14:24;19.13;;;16.35;;
12776;SDS011;6452;41.572;23.732;2023-02-24T00:16:56;20.17;;;16.45;;
12776;SDS011;6452;41.572;23.732;2023-02-24T00:19:24;20.33;;;15.88;;
12776;SDS011;6452;41.572;23.732;2023-02-24T00:21:51;19.98;;;16.35;;
12776;SDS011;6452;41.572;23.732;2023-02-24T00:24:21;25.90;;;19.67;;
12776;SDS011;6452;41.572;23.732;2023-02-24T00:26:51;29.92;;;23.55;;
12776;SDS011;6452;41.572;23.732;2023-02-24T00:29:22;32.42;;;23.33;;
12776;SDS011;6452;41.572;23.732;2023-02-24T00:31:49;28.60;;;22.88;;
12776;SDS011;6452;41.572;23.732;2023-02-24T00:34:26;36.50;;;22.92;;
12776;SDS011;6452;41.572;23.732;2023-02-24T00:37:10;26.02;;;21.42;;
12776;SDS011;6452;41.572;23.732;2023-02-24T00:39:40;23.58;;;20.80;;
12776;SDS011;6452;41.572;23.732;2023-02-24T00:42:08;25.42;;;21.08;;
12776;SDS011;6452;41.572;23.732;2023-02-24T00:44:37;24.92;;;21.35;;
12776;SDS011;6452;41.572;23.732;2023-02-24T00:47:05;27.05;;;21.77;;
12776;SDS011;6452;41.572;23.732;2023-02-24T00:49:33;26.75;;;21.38;;
12776;SDS011;6452;41.572;23.732;2023-02-24T00:52:00;27.15;;;21.70;;
12776;SDS011;6452;41.572;23.732;2023-02-24T00:54:34;24.33;;;21.08;;
12776;SDS011;6452;41.572;23.732;2023-02-24T00:57:01;31.88;;;22.67;;
12776;SDS011;6452;41.572;23.732;2023-02-24T00:59:28;27.52;;;21.77;;
12776;SDS011;6452;41.572;23.732;2023-02-24T01:01:54;30.42;;;21.17;;
12776;SDS011;6452;41.572;23.732;2023-02-24T01:04:21;24.80;;;19.77;;
12776;SDS011;6452;41.572;23.732;2023-02-24T01:06:49;24.98;;;19.75;;
12776;SDS011;6452;41.572;23.732;2023-02-24T01:09:17;26.75;;;20.95;;
12776;SDS011;6452;41.572;23.732;2023-02-24T01:11:47;27.73;;;20.95;;
12776;SDS011;6452;41.572;23.732;2023-02-24T01:14:43;27.48;;;20.10;;
12776;SDS011;6452;41.572;23.732;2023-02-24T01:17:14;23.70;;;20.58;;
12776;SDS011;6452;41.572;23.732;2023-02-24T01:19:42;26.65;;;20.05;;
12776;SDS011;6452;41.572;23.732;2023-02-24T01:22:10;26.35;;;21.13;;
12776;SDS011;6452;41.572;23.732;2023-02-24T01:24:40;24.17;;;21.05;;
12776;SDS011;6452;41.572;23.732;2023-02-24T01:27:08;26.83;;;20.50;;
12776;SDS011;6452;41.572;23.732;2023-02-24T01:29:40;25.70;;;20.52;;
12776;SDS011;6452;41.572;23.732;2023-02-24T01:32:10;25.58;;;19.98;;
12776;SDS011;6452;41.572;23.732;2023-02-24T01:34:41;25.65;;;20.23;;
12776;SDS011;6452;41.572;23.732;2023-02-24T01:37:07;25.60;;;20.55;;
12776;SDS011;6452;41.572;23.732;2023-02-24T01:39:34;28.80;;;20.70;;
12776;SDS011;6452;41.572;23.732;2023-02-24T01:42:02;23.50;;;20.70;;
12776;SDS011;6452;41.572;23.732;2023-02-24T01:46:57;26.42;;;20.88;;
12776;SDS011;6452;41.572;23.732;2023-02-24T01:52:12;25.77;;;21.50;;
12776;SDS011;6452;41.572;23.732;2023-02-24T01:55:13;29.20;;;21.75;;
12776;SDS011;6452;41.572;23.732;2023-02-24T01:57:44;25.35;;;20.95;;
12776;SDS011;6452;41.572;23.732;2023-02-24T02:00:12;26.55;;;21.75;;
12776;SDS011;6452;41.572;23.732;2023-02-24T02:02:55;27.30;;;21.10;;
12776;SDS011;6452;41.572;23.732;2023-02-24T02:05:25;29.52;;;22.13;;
12776;SDS011;6452;41.572;23.732;2023-02-24T02:07:51;24.02;;;20.58;;
12776;SDS011;6452;41.572;23.732;2023-02-24T02:10:19;26.25;;;21.17;;
12776;SDS011;6452;41.572;23.732;2023-02-24T02:12:45;26.02;;;20.95;;
12776;SDS011;6452;41.572;23.732;2023-02-24T02:15:13;27.52;;;21.08;;
12776;SDS011;6452;41.572;23.732;2023-02-24T02:26:25;24.42;;;17.67;;
12776;SDS011;6452;41.572;23.732;2023-02-24T02:29:44;24.00;;;18.75;;
12776;SDS011;6452;41.572;23.732;2023-02-24T02:33:28;20.58;;;17.35;;
12776;SDS011;6452;41.572;23.732;2023-02-24T02:41:34;22.52;;;18.23;;
12776;SDS011;6452;41.572;23.732;2023-02-24T02:44:34;24.77;;;18.73;;
12776;SDS011;6452;41.572;23.732;2023-02-24T02:47:23;24.02;;;19.15;;
12776;SDS011;6452;41.572;23.732;2023-02-24T02:50:06;24.63;;;18.73;;
12776;SDS011;6452;41.572;23.732;2023-02-24T02:52:50;23.58;;;19.17;;
12776;SDS011;6452;41.572;23.732;2023-02-24T02:55:40;20.50;;;17.90;;
12776;SDS011;6452;41.572;23.732;2023-02-24T02:58:13;21.55;;;18.27;;
12776;SDS011;6452;41.572;23.732;2023-02-24T03:00:46;21.35;;;17.17;;
12776;SDS011;6452;41.572;23.732;2023-02-24T03:03:42;21.27;;;17.42;;
12776;SDS011;6452;41.572;23.732;2023-02-24T03:06:18;20.92;;;16.40;;
12776;SDS011;6452;41.572;23.732;2023-02-24T03:08:54;19.02;;;16.52;;
12776;SDS011;6452;41.572;23.732;2023-02-24T03:11:23;20.85;;;16.95;;
12776;SDS011;6452;41.572;23.732;2023-02-24T03:13:50;19.55;;;16.58;;
12776;SDS011;6452;41.572;23.732;2023-02-24T03:16:21;23.88;;;18.40;;
12776;SDS011;6452;41.572;23.732;2023-02-24T03:18:58;20.63;;;16.90;;
12776;SDS011;6452;41.572;23.732;2023-02-24T03:21:42;20.63;;;16.50;;
12776;SDS011;6452;41.572;23.732;2023-02-24T03:24:10;25.35;;;17.00;;
12776;SDS011;6452;41.572;23.732;2023-02-24T03:35:07;22.63;;;16.98;;
12776;SDS011;6452;41.572;23.732;2023-02-24T03:37:41;19.13;;;17.02;;
12776;SDS011;6452;41.572;23.732;2023-02-24T03:40:12;22.02;;;17.77;;
12776;SDS011;6452;41.572;23.732;2023-02-24T03:42:40;24.92;;;20.23;;
12776;SDS011;6452;41.572;23.732;2023-02-24T03:45:09;23.08;;;19.60;;
12776;SDS011;6452;41.572;23.732;2023-02-24T03:47:36;24.23;;;18.98;;
12776;SDS011;6452;41.572;23.732;2023-02-24T03:50:12;34.67;;;25.75;;
12776;SDS011;6452;41.572;23.732;2023-02-24T04:00:57;25.92;;;21.00;;
12776;SDS011;6452;41.572;23.732;2023-02-24T04:03:32;24.77;;;20.77;;
12776;SDS011;6452;41.572;23.732;2023-02-24T04:06:12;26.90;;;21.50;;
12776;SDS011;6452;41.572;23.732;2023-02-24T04:08:42;24.88;;;21.70;;
12776;SDS011;6452;41.572;23.732;2023-02-24T04:11:35;24.73;;;21.30;;
12776;SDS011;6452;41.572;23.732;2023-02-24T04:14:16;26.30;;;20.67;;
12776;SDS011;6452;41.572;23.732;2023-02-24T04:16:57;25.45;;;20.98;;
12776;SDS011;6452;41.572;23.732;2023-02-24T04:19:36;25.65;;;20.75;;
12776;SDS011;6452;41.572;23.732;2023-02-24T04:22:05;27.00;;;23.80;;
12776;SDS011;6452;41.572;23.732;2023-02-24T04:24:34;32.67;;;26.00;;
12776;SDS011;6452;41.572;23.732;2023-02-24T04:27:04;32.95;;;26.02;;
12776;SDS011;6452;41.572;23.732;2023-02-24T04:29:33;28.63;;;24.90;;
12776;SDS011;6452;41.572;23.732;2023-02-24T04:32:05;31.20;;;24.38;;
12776;SDS011;6452;41.572;23.732;2023-02-24T04:34:38;33.95;;;26.45;;
12776;SDS011;6452;41.572;23.732;2023-02-24T04:37:06;37.35;;;24.15;;
12776;SDS011;6452;41.572;23.732;2023-02-24T04:39:33;30.10;;;22.67;;
12776;SDS011;6452;41.572;23.732;2023-02-24T04:42:03;30.10;;;23.73;;
12776;SDS011;6452;41.572;23.732;2023-02-24T04:44:30;31.85;;;25.05;;
12776;SDS011;6452;41.572;23.732;2023-02-24T04:46:57;32.97;;;24.27;;
12776;SDS011;6452;41.572;23.732;2023-02-24T04:49:25;29.33;;;24.48;;
12776;SDS011;6452;41.572;23.732;2023-02-24T04:51:51;31.23;;;24.88;;
12776;SDS011;6452;41.572;23.732;2023-02-24T04:54:19;31.33;;;26.05;;
12776;SDS011;6452;41.572;23.732;2023-02-24T04:56:46;34.15;;;27.15;;
12776;SDS011;6452;41.572;23.732;2023-02-24T04:59:15;33.15;;;25.10;;
12776;SDS011;6452;41.572;23.732;2023-02-24T05:01:43;36.05;;;27.52;;
12776;SDS011;6452;41.572;23.732;2023-02-24T05:04:10;41.85;;;30.75;;
12776;SDS011;6452;41.572;23.732;2023-02-24T05:06:41;39.17;;;30.58;;
12776;SDS011;6452;41.572;23.732;2023-02-24T05:09:15;35.70;;;27.73;;
12776;SDS011;6452;41.572;23.732;2023-02-24T05:11:43;31.08;;;26.15;;
12776;SDS011;6452;41.572;23.732;2023-02-24T05:14:11;33.28;;;26.73;;
12776;SDS011;6452;41.572;23.732;2023-02-24T05:16:41;37.10;;;28.35;;
12776;SDS011;6452;41.572;23.732;2023-02-24T05:19:09;35.30;;;26.98;;
12776;SDS011;6452;41.572;23.732;2023-02-24T05:21:54;34.00;;;26.75;;
12776;SDS011;6452;41.572;23.732;2023-02-24T05:24:24;37.33;;;26.83;;
12776;SDS011;6452;41.572;23.732;2023-02-24T05:26:56;33.58;;;26.15;;
12776;SDS011;6452;41.572;23.732;2023-02-24T05:29:24;73.60;;;39.90;;
12776;SDS011;6452;41.572;23.732;2023-02-24T05:31:58;52.08;;;35.80;;
12776;SDS011;6452;41.572;23.732;2023-02-24T05:34:24;35.85;;;27.15;;
12776;SDS011;6452;41.572;23.732;2023-02-24T05:37:11;37.17;;;28.60;;
12776;SDS011;6452;41.572;23.732;2023-02-24T05:39:41;41.38;;;30.65;;
12776;SDS011;6452;41.572;23.732;2023-02-24T05:42:11;38.42;;;30.15;;
12776;SDS011;6452;41.572;23.732;2023-02-24T05:44:38;34.92;;;28.95;;
12776;SDS011;6452;41.572;23.732;2023-02-24T05:47:05;37.75;;;28.58;;
12776;SDS011;6452;41.572;23.732;2023-02-24T05:49:37;35.85;;;28.17;;
12776;SDS011;6452;41.572;23.732;2023-02-24T05:52:05;38.30;;;29.60;;
12776;SDS011;6452;41.572;23.732;2023-02-24T05:54:37;39.15;;;33.40;;
12776;SDS011;6452;41.572;23.732;2023-02-24T05:57:10;44.55;;;35.03;;
12776;SDS011;6452;41.572;23.732;2023-02-24T05:59:42;42.13;;;33.42;;
12776;SDS011;6452;41.572;23.732;2023-02-24T06:02:10;38.22;;;30.80;;
12776;SDS011;6452;41.572;23.732;2023-02-24T06:04:39;46.25;;;33.78;;
12776;SDS011;6452;41.572;23.732;2023-02-24T06:07:27;46.08;;;35.20;;
12776;SDS011;6452;41.572;23.732;2023-02-24T06:09:59;37.50;;;30.25;;
12776;SDS011;6452;41.572;23.732;2023-02-24T06:12:27;42.90;;;32.83;;
12776;SDS011;6452;41.572;23.732;2023-02-24T06:14:55;41.78;;;30.38;;
12776;SDS011;6452;41.572;23.732;2023-02-24T06:17:24;47.03;;;32.95;;
12776;SDS011;6452;41.572;23.732;2023-02-24T06:19:52;46.17;;;34.53;;
12776;SDS011;6452;41.572;23.732;2023-02-24T06:22:23;48.58;;;37.97;;
12776;SDS011;6452;41.572;23.732;2023-02-24T06:24:51;50.80;;;39.22;;
12776;SDS011;6452;41.572;23.732;2023-02-24T06:27:18;45.80;;;35.63;;
12776;SDS011;6452;41.572;23.732;2023-02-24T06:29:49;49.53;;;39.17;;
12776;SDS011;6452;41.572;23.732;2023-02-24T06:32:18;51.42;;;40.28;;
12776;SDS011;6452;41.572;23.732;2023-02-24T06:34:45;55.78;;;45.70;;
12776;SDS011;6452;41.572;23.732;2023-02-24T06:37:12;52.03;;;41.38;;
12776;SDS011;6452;41.572;23.732;2023-02-24T06:39:39;49.60;;;39.67;;
12776;SDS011;6452;41.572;23.732;2023-02-24T06:42:07;58.53;;;44.22;;
12776;SDS011;6452;41.572;23.732;2023-02-24T06:44:35;66.80;;;45.72;;
12776;SDS011;6452;41.572;23.732;2023-02-24T06:47:03;63.63;;;44.03;;
12776;SDS011;6452;41.572;23.732;2023-02-24T06:49:31;57.13;;;43.25;;
12776;SDS011;6452;41.572;23.732;2023-02-24T06:51:58;56.88;;;43.08;;
12776;SDS011;6452;41.572;23.732;2023-02-24T06:54:24;48.40;;;40.10;;
12776;SDS011;6452;41.572;23.732;2023-02-24T06:56:55;46.88;;;38.85;;
12776;SDS011;6452;41.572;23.732;2023-02-24T06:59:24;52.28;;;39.15;;
12776;SDS011;6452;41.572;23.732;2023-02-24T07:01:56;51.33;;;39.55;;
12776;SDS011;6452;41.572;23.732;2023-02-24T07:04:26;43.90;;;35.70;;
12776;SDS011;6452;41.572;23.732;2023-02-24T07:06:53;50.28;;;39.88;;
12776;SDS011;6452;41.572;23.732;2023-02-24T07:09:41;52.58;;;38.38;;
12776;SDS011;6452;41.572;23.732;2023-02-24T07:12:09;47.60;;;36.10;;
12776;SDS011;6452;41.572;23.732;2023-02-24T07:14:37;44.30;;;32.17;;
12776;SDS011;6452;41.572;23.732;2023-02-24T07:17:03;38.70;;;29.55;;
12776;SDS011;6452;41.572;23.732;2023-02-24T07:19:30;28.80;;;23.45;;
12776;SDS011;6452;41.572;23.732;2023-02-24T07:21:57;40.70;;;29.85;;
12776;SDS011;6452;41.572;23.732;2023-02-24T07:24:27;40.78;;;31.25;;
12776;SDS011;6452;41.572;23.732;2023-02-24T07:26:58;31.70;;;26.08;;
12776;SDS011;6452;41.572;23.732;2023-02-24T07:29:27;30.90;;;24.75;;
12776;SDS011;6452;41.572;23.732;2023-02-24T07:31:54;40.78;;;31.70;;
12776;SDS011;6452;41.572;23.732;2023-02-24T07:34:25;46.47;;;33.85;;
12776;SDS011;6452;41.572;23.732;2023-02-24T07:36:53;41.67;;;35.20;;
12776;SDS011;6452;41.572;23.732;2023-02-24T07:39:20;43.13;;;34.47;;
12776;SDS011;6452;41.572;23.732;2023-02-24T07:41:51;37.53;;;32.05;;
12776;SDS011;6452;41.572;23.732;2023-02-24T07:44:20;43.55;;;32.28;;
12776;SDS011;6452;41.572;23.732;2023-02-24T07:46:48;39.13;;;31.50;;
12776;SDS011;6452;41.572;23.732;2023-02-24T07:49:15;44.15;;;32.55;;
12776;SDS011;6452;41.572;23.732;2023-02-24T07:51:44;40.58;;;31.17;;
12776;SDS011;6452;41.572;23.732;2023-02-24T07:54:12;37.88;;;30.48;;
12776;SDS011;6452;41.572;23.732;2023-02-24T07:56:40;35.88;;;27.48;;
12776;SDS011;6452;41.572;23.732;2023-02-24T07:59:11;31.67;;;25.88;;
12776;SDS011;6452;41.572;23.732;2023-02-24T08:01:40;26.20;;;23.05;;
12776;SDS011;6452;41.572;23.732;2023-02-24T08:04:15;26.23;;;21.80;;
12776;SDS011;6452;41.572;23.732;2023-02-24T08:06:45;28.65;;;21.55;;
12776;SDS011;6452;41.572;23.732;2023-02-24T08:09:15;22.90;;;19.33;;
12776;SDS011;6452;41.572;23.732;2023-02-24T08:14:23;31.65;;;24.35;;
12776;SDS011;6452;41.572;23.732;2023-02-24T08:16:59;33.97;;;27.10;;
12776;SDS011;6452;41.572;23.732;2023-02-24T08:19:31;36.13;;;26.58;;
12776;SDS011;6452;41.572;23.732;2023-02-24T08:22:07;31.15;;;23.80;;
12776;SDS011;6452;41.572;23.732;2023-02-24T08:24:51;28.70;;;22.27;;
12776;SDS011;6452;41.572;23.732;2023-02-24T08:27:19;24.73;;;21.45;;
12776;SDS011;6452;41.572;23.732;2023-02-24T08:29:48;24.98;;;20.65;;
12776;SDS011;6452;41.572;23.732;2023-02-24T08:32:34;21.40;;;18.95;;
12776;SDS011;6452;41.572;23.732;2023-02-24T08:35:04;22.13;;;19.80;;
12776;SDS011;6452;41.572;23.732;2023-02-24T08:37:40;20.77;;;18.58;;
12776;SDS011;6452;41.572;23.732;2023-02-24T08:43:04;22.77;;;20.35;;
12776;SDS011;6452;41.572;23.732;2023-02-24T08:48:19;23.80;;;21.23;;
12776;SDS011;6452;41.572;23.732;2023-02-24T08:50:52;26.30;;;22.40;;
12776;SDS011;6452;41.572;23.732;2023-02-24T08:53:19;28.13;;;22.67;;
12776;SDS011;6452;41.572;23.732;2023-02-24T08:55:47;26.00;;;22.65;;
12776;SDS011;6452;41.572;23.732;2023-02-24T08:58:20;27.58;;;22.45;;
12776;SDS011;6452;41.572;23.732;2023-02-24T09:00:52;29.38;;;24.30;;
12776;SDS011;6452;41.572;23.732;2023-02-24T09:03:23;29.98;;;23.17;;
12776;SDS011;6452;41.572;23.732;2023-02-24T09:05:59;25.05;;;20.38;;
12776;SDS011;6452;41.572;23.732;2023-02-24T09:08:29;24.30;;;20.25;;
12776;SDS011;6452;41.572;23.732;2023-02-24T09:11:00;21.70;;;19.45;;
12776;SDS011;6452;41.572;23.732;2023-02-24T09:13:35;23.08;;;18.35;;
12776;SDS011;6452;41.572;23.732;2023-02-24T09:16:07;21.38;;;19.15;;
12776;SDS011;6452;41.572;23.732;2023-02-24T09:18:41;20.42;;;17.85;;
12776;SDS011;6452;41.572;23.732;2023-02-24T09:21:11;22.52;;;19.35;;
12776;SDS011;6452;41.572;23.732;2023-02-24T09:24:11;23.42;;;17.65;;
12776;SDS011;6452;41.572;23.732;2023-02-24T09:26:38;23.83;;;21.33;;
12776;SDS011;6452;41.572;23.732;2023-02-24T09:29:11;21.73;;;19.38;;
12776;SDS011;6452;41.572;23.732;2023-02-24T09:31:57;21.23;;;17.73;;
12776;SDS011;6452;41.572;23.732;2023-02-24T09:34:30;20.67;;;18.58;;
12776;SDS011;6452;41.572;23.732;2023-02-24T09:37:00;21.13;;;18.98;;
12776;SDS011;6452;41.572;23.732;2023-02-24T09:39:34;27.10;;;19.88;;
12776;SDS011;6452;41.572;23.732;2023-02-24T09:42:30;22.08;;;19.67;;
12776;SDS011;6452;41.572;23.732;2023-02-24T09:45:20;25.55;;;21.85;;
12776;SDS011;6452;41.572;23.732;2023-02-24T09:48:01;23.98;;;20.85;;
12776;SDS011;6452;41.572;23.732;2023-02-24T09:50:35;27.75;;;21.98;;
12776;SDS011;6452;41.572;23.732;2023-02-24T09:53:26;23.67;;;20.33;;
12776;SDS011;6452;41.572;23.732;2023-02-24T09:56:19;23.73;;;19.67;;
12776;SDS011;6452;41.572;23.732;2023-02-24T10:04:51;26.35;;;23.55;;
12776;SDS011;6452;41.572;23.732;2023-02-24T10:07:38;30.08;;;23.73;;
12776;SDS011;6452;41.572;23.732;2023-02-24T10:10:28;26.50;;;23.13;;
12776;SDS011;6452;41.572;23.732;2023-02-24T10:13:10;28.20;;;22.08;;
12776;SDS011;6452;41.572;23.732;2023-02-24T10:15:42;23.75;;;21.23;;
12776;SDS011;6452;41.572;23.732;2023-02-24T10:19:02;24.30;;;21.15;;
12776;SDS011;6452;41.572;23.732;2023-02-24T10:33:14;19.83;;;17.25;;
12776;SDS011;6452;41.572;23.732;2023-02-24T10:35:41;18.08;;;15.35;;
12776;SDS011;6452;41.572;23.732;2023-02-24T10:38:08;18.98;;;16.17;;
12776;SDS011;6452;41.572;23.732;2023-02-24T10:40:48;18.02;;;15.05;;
12776;SDS011;6452;41.572;23.732;2023-02-24T10:43:22;16.92;;;15.13;;
12776;SDS011;6452;41.572;23.732;2023-02-24T10:45:55;21.02;;;16.88;;
12776;SDS011;6452;41.572;23.732;2023-02-24T10:48:48;27.80;;;23.08;;
12776;SDS011;6452;41.572;23.732;2023-02-24T10:51:39;25.10;;;21.13;;
12776;SDS011;6452;41.572;23.732;2023-02-24T10:54:11;22.77;;;20.42;;
12776;SDS011;6452;41.572;23.732;2023-02-24T10:56:57;20.02;;;17.50;;
12776;SDS011;6452;41.572;23.732;2023-02-24T11:00:00;20.17;;;18.02;;
12776;SDS011;6452;41.572;23.732;2023-02-24T11:02:55;20.73;;;18.58;;
12776;SDS011;6452;41.572;23.732;2023-02-24T11:05:35;24.02;;;18.70;;
12776;SDS011;6452;41.572;23.732;2023-02-24T11:08:08;26.67;;;17.63;;
12776;SDS011;6452;41.572;23.732;2023-02-24T11:10:50;25.13;;;19.95;;
12776;SDS011;6452;41.572;23.732;2023-02-24T11:13:31;23.15;;;20.55;;
12776;SDS011;6452;41.572;23.732;2023-02-24T11:16:16;27.05;;;21.88;;
12776;SDS011;6452;41.572;23.732;2023-02-24T11:19:01;23.60;;;19.73;;
12776;SDS011;6452;41.572;23.732;2023-02-24T11:21:31;25.35;;;19.58;;
12776;SDS011;6452;41.572;23.732;2023-02-24T11:23:58;23.73;;;18.75;;
12776;SDS011;6452;41.572;23.732;2023-02-24T11:26:36;19.83;;;17.73;;
12776;SDS011;6452;41.572;23.732;2023-02-24T11:34:28;23.45;;;20.83;;
12776;SDS011;6452;41.572;23.732;2023-02-24T11:37:29;14.98;;;13.60;;
12776;SDS011;6452;41.572;23.732;2023-02-24T11:40:31;19.77;;;15.73;;
12776;SDS011;6452;41.572;23.732;2023-02-24T11:43:19;15.73;;;14.32;;
12776;SDS011;6452;41.572;23.732;2023-02-24T11:45:53;17.20;;;15.45;;
12776;SDS011;6452;41.572;23.732;2023-02-24T11:48:48;16.45;;;14.32;;
12776;SDS011;6452;41.572;23.732;2023-02-24T11:51:23;19.85;;;14.35;;
12776;SDS011;6452;41.572;23.732;2023-02-24T11:53:54;11.07;;;10.15;;
12776;SDS011;6452;41.572;23.732;2023-02-24T11:56:25;11.00;;;9.88;;
12776;SDS011;6452;41.572;23.732;2023-02-24T11:59:03;8.82;;;8.10;;
12776;SDS011;6452;41.572;23.732;2023-02-24T12:09:53;5.90;;;5.22;;
12776;SDS011;6452;41.572;23.732;2023-02-24T12:12:44;6.68;;;6.07;;
12776;SDS011;6452;41.572;23.732;2023-02-24T12:15:27;5.68;;;5.28;;
12776;SDS011;6452;41.572;23.732;2023-02-24T12:20:51;9.60;;;6.13;;
12776;SDS011;6452;41.572;23.732;2023-02-24T12:23:33;7.38;;;6.55;;
12776;SDS011;6452;41.572;23.732;2023-02-24T12:26:48;7.80;;;7.10;;
12776;SDS011;6452;41.572;23.732;2023-02-24T12:29:07;11.55;;;7.00;;
12776;SDS011;6452;41.572;23.732;2023-02-24T12:40:08;8.52;;;7.22;;
12776;SDS011;6452;41.572;23.732;2023-02-24T12:42:43;7.55;;;6.95;;
12776;SDS011;6452;41.572;23.732;2023-02-24T12:45:25;7.70;;;6.10;;
12776;SDS011;6452;41.572;23.732;2023-02-24T12:51:04;8.65;;;6.97;;
12776;SDS011;6452;41.572;23.732;2023-02-24T12:59:27;10.73;;;7.63;;
12776;SDS011;6452;41.572;23.732;2023-02-24T13:15:32;6.85;;;6.20;;
12776;SDS011;6452;41.572;23.732;2023-02-24T13:18:21;7.97;;;6.75;;
12776;SDS011;6452;41.572;23.732;2023-02-24T13:20:59;8.40;;;7.57;;
12776;SDS011;6452;41.572;23.732;2023-02-24T13:23:29;7.45;;;6.25;;
12776;SDS011;6452;41.572;23.732;2023-02-24T13:25:56;7.85;;;6.38;;
12776;SDS011;6452;41.572;23.732;2023-02-24T13:28:24;9.45;;;6.38;;
12776;SDS011;6452;41.572;23.732;2023-02-24T13:30:59;7.65;;;5.95;;
12776;SDS011;6452;41.572;23.732;2023-02-24T13:33:38;9.02;;;6.07;;
12776;SDS011;6452;41.572;23.732;2023-02-24T13:36:19;6.63;;;6.03;;
12776;SDS011;6452;41.572;23.732;2023-02-24T13:38:49;9.15;;;6.05;;
12776;SDS011;6452;41.572;23.732;2023-02-24T13:43:54;7.35;;;6.25;;
12776;SDS011;6452;41.572;23.732;2023-02-24T13:46:24;8.93;;;6.55;;
12776;SDS011;6452;41.572;23.732;2023-02-24T13:54:55;9.35;;;6.90;;
12776;SDS011;6452;41.572;23.732;2023-02-24T13:57:44;9.65;;;7.80;;
12776;SDS011;6452;41.572;23.732;2023-02-24T14:02:57;10.95;;;7.65;;
12776;SDS011;6452;41.572;23.732;2023-02-24T14:05:33;10.55;;;7.75;;
12776;SDS011;6452;41.572;23.732;2023-02-24T14:08:00;11.00;;;8.00;;
12776;SDS011;6452;41.572;23.732;2023-02-24T14:10:29;11.02;;;6.97;;
12776;SDS011;6452;41.572;23.732;2023-02-24T14:13:03;9.57;;;7.30;;
12776;SDS011;6452;41.572;23.732;2023-02-24T14:15:41;11.40;;;8.50;;
12776;SDS011;6452;41.572;23.732;2023-02-24T14:18:23;17.33;;;7.75;;
12776;SDS011;6452;41.572;23.732;2023-02-24T14:20:52;9.18;;;7.80;;
12776;SDS011;6452;41.572;23.732;2023-02-24T14:25:58;25.75;;;21.25;;
12776;SDS011;6452;41.572;23.732;2023-02-24T14:28:30;17.45;;;9.55;;
12776;SDS011;6452;41.572;23.732;2023-02-24T14:31:11;14.40;;;9.07;;
12776;SDS011;6452;41.572;23.732;2023-02-24T14:33:52;13.30;;;7.65;;
12776;SDS011;6452;41.572;23.732;2023-02-24T14:36:24;17.58;;;8.40;;
12776;SDS011;6452;41.572;23.732;2023-02-24T14:39:00;15.23;;;10.48;;
12776;SDS011;6452;41.572;23.732;2023-02-24T14:41:47;24.88;;;20.23;;
12776;SDS011;6452;41.572;23.732;2023-02-24T14:44:41;52.63;;;37.45;;
12776;SDS011;6452;41.572;23.732;2023-02-24T14:47:10;34.67;;;28.50;;
12776;SDS011;6452;41.572;23.732;2023-02-24T14:49:38;29.83;;;24.20;;
12776;SDS011;6452;41.572;23.732;2023-02-24T14:52:13;12.50;;;10.30;;
12776;SDS011;6452;41.572;23.732;2023-02-24T14:57:24;18.60;;;13.80;;
12776;SDS011;6452;41.572;23.732;2023-02-24T14:59:55;18.45;;;13.43;;
12776;SDS011;6452;41.572;23.732;2023-02-24T15:02:26;19.50;;;14.60;;
12776;SDS011;6452;41.572;23.732;2023-02-24T15:04:57;22.27;;;12.68;;
12776;SDS011;6452;41.572;23.732;2023-02-24T15:07:25;18.48;;;13.85;;
12776;SDS011;6452;41.572;23.732;2023-02-24T15:09:55;13.32;;;8.85;;
12776;SDS011;6452;41.572;23.732;2023-02-24T15:12:25;14.02;;;8.20;;
12776;SDS011;6452;41.572;23.732;2023-02-24T15:17:48;26.42;;;16.38;;
12776;SDS011;6452;41.572;23.732;2023-02-24T15:20:27;29.10;;;16.88;;
12776;SDS011;6452;41.572;23.732;2023-02-24T15:22:58;18.77;;;11.93;;
12776;SDS011;6452;41.572;23.732;2023-02-24T15:25:26;26.58;;;15.00;;
12776;SDS011;6452;41.572;23.732;2023-02-24T15:27:55;15.80;;;10.60;;
12776;SDS011;6452;41.572;23.732;2023-02-24T15:33:18;14.13;;;9.77;;
12776;SDS011;6452;41.572;23.732;2023-02-24T15:35:51;17.88;;;10.00;;
12776;SDS011;6452;41.572;23.732;2023-02-24T15:41:01;14.35;;;7.80;;
12776;SDS011;6452;41.572;23.732;2023-02-24T15:43:36;16.60;;;9.35;;
12776;SDS011;6452;41.572;23.732;2023-02-24T15:48:44;17.08;;;10.10;;
12776;SDS011;6452;41.572;23.732;2023-02-24T15:54:06;15.63;;;11.82;;
12776;SDS011;6452;41.572;23.732;2023-02-24T15:56:42;15.20;;;9.68;;
12776;SDS011;6452;41.572;23.732;2023-02-24T15:59:15;15.93;;;8.50;;
12776;SDS011;6452;41.572;23.732;2023-02-24T16:01:42;33.90;;;15.60;;
12776;SDS011;6452;41.572;23.732;2023-02-24T16:04:09;18.23;;;11.55;;
12776;SDS011;6452;41.572;23.732;2023-02-24T16:06:35;15.45;;;8.80;;
12776;SDS011;6452;41.572;23.732;2023-02-24T16:09:07;12.05;;;6.53;;
12776;SDS011;6452;41.572;23.732;2023-02-24T16:11:38;11.38;;;6.97;;
12776;SDS011;6452;41.572;23.732;2023-02-24T16:14:07;10.52;;;7.32;;
12776;SDS011;6452;41.572;23.732;2023-02-24T16:16:38;15.20;;;11.07;;
12776;SDS011;6452;41.572;23.732;2023-02-24T16:19:05;20.30;;;15.85;;
12776;SDS011;6452;41.572;23.732;2023-02-24T16:21:33;27.65;;;15.60;;
12776;SDS011;6452;41.572;23.732;2023-02-24T16:23:59;25.73;;;16.20;;
12776;SDS011;6452;41.572;23.732;2023-02-24T16:26:26;29.25;;;17.85;;
12776;SDS011;6452;41.572;23.732;2023-02-24T16:28:53;38.92;;;24.58;;
12776;SDS011;6452;41.572;23.732;2023-02-24T16:31:21;26.45;;;17.33;;
12776;SDS011;6452;41.572;23.732;2023-02-24T16:33:48;23.88;;;14.60;;
12776;SDS011;6452;41.572;23.732;2023-02-24T16:36:15;18.98;;;12.43;;
12776;SDS011;6452;41.572;23.732;2023-02-24T16:38:46;16.02;;;13.20;;
12776;SDS011;6452;41.572;23.732;2023-02-24T16:41:15;28.23;;;15.45;;
12776;SDS011;6452;41.572;23.732;2023-02-24T16:43:42;24.25;;;15.70;;
12776;SDS011;6452;41.572;23.732;2023-02-24T16:46:12;23.08;;;12.93;;
12776;SDS011;6452;41.572;23.732;2023-02-24T16:48:41;20.60;;;13.57;;
12776;SDS011;6452;41.572;23.732;2023-02-24T16:51:11;21.98;;;13.63;;
12776;SDS011;6452;41.572;23.732;2023-02-24T16:53:37;19.48;;;13.85;;
12776;SDS011;6452;41.572;23.732;2023-02-24T16:56:04;41.72;;;28.08;;
12776;SDS011;6452;41.572;23.732;2023-02-24T16:58:32;33.15;;;22.20;;
12776;SDS011;6452;41.572;23.732;2023-02-24T17:00:59;43.78;;;31.67;;
12776;SDS011;6452;41.572;23.732;2023-02-24T17:05:55;65.40;;;42.38;;
12776;SDS011;6452;41.572;23.732;2023-02-24T17:08:25;37.25;;;24.02;;
12776;SDS011;6452;41.572;23.732;2023-02-24T17:10:52;48.72;;;24.65;;
12776;SDS011;6452;41.572;23.732;2023-02-24T17:13:19;34.50;;;20.83;;
12776;SDS011;6452;41.572;23.732;2023-02-24T17:15:46;34.60;;;20.45;;
12776;SDS011;6452;41.572;23.732;2023-02-24T17:18:12;39.35;;;26.02;;
12776;SDS011;6452;41.572;23.732;2023-02-24T17:20:39;35.08;;;20.25;;
12776;SDS011;6452;41.572;23.732;2023-02-24T17:23:08;103.35;;;66.72;;